Latest Weather Observations for Coles Point

IDS60801

Issued at 8:01 am CST Saturday 7 May 2016 (issued every 30 minutes, with the page automatically refreshed every 10 minutes)

About weather observations | Map of weather stations | Latest weather observations for SA | Other Formats
Station Details ID: 018191 Name: COLES POINT Lat: -34.37 Lon: 135.37 Height: 28.0 m
Data from the previous 72 hours. | See also: Recent months at Coles Point
Date/Time
CST
Temp
°C
App
Temp
°C
Dew
Point
Rel
Hum
%
Delta-T
°C
Wind Press
QNH
hPa
Press
MSL
hPa
Rain
since 9 am
mm
Dir
 
Spd
km/h
Gust
km/h
Spd
kts
Gust
kts
07/08:00am 16.6 13.8 13.1 80 2.0 E 20 30 11 16 1010.3 1010.3 0.2
07/07:30am 16.2 13.6 13.7 85 1.4 E 20 28 11 15 1010.2 1010.2 0.2
07/07:00am 16.3 13.6 13.4 83 1.6 ESE 20 28 11 15 1009.7 1009.7 0.2
07/06:30am 16.3 13.5 12.5 78 2.1 E 19 26 10 14 1009.9 1009.9 0.2
07/06:00am 16.1 14.0 12.3 78 2.1 ESE 15 19 8 10 1010.1 1010.1 0.2
07/05:30am 15.8 15.0 12.9 83 1.6 E 9 13 5 7 1010.2 1010.2 0.2
07/05:00am 15.3 15.5 13.2 87 1.2 SE 4 6 2 3 1010.7 1010.7 0.2
07/04:30am 15.3 15.9 13.0 86 1.3 ESE 2 4 1 2 1010.6 1010.6 0.2
07/04:00am 15.5 15.1 13.0 85 1.4 E 7 9 4 5 1010.8 1010.8 0.2
07/03:30am 15.7 14.3 13.4 86 1.3 E 13 19 7 10 1011.1 1011.1 0.2
07/03:00am 15.7 15.1 13.4 86 1.3 ENE 9 13 5 7 1011.6 1011.6 0.2
07/02:30am 15.8 14.1 13.6 87 1.2 ENE 15 20 8 11 1011.4 1011.4 0.2
07/02:00am 15.8 14.5 13.8 88 1.1 E 13 19 7 10 1011.3 1011.3 0.2
07/01:30am 15.8 13.5 14.0 89 1.0 E 19 22 10 12 1011.3 1011.3 0.2
07/01:00am 15.7 14.0 13.7 88 1.1 E 15 19 8 10 1011.7 1011.7 0.2
07/12:30am 15.0 14.8 13.5 91 0.8 E 7 11 4 6 1011.8 1011.8 0.2
07/12:00am 14.6 13.9 13.1 91 0.8 ENE 9 9 5 5 1012.3 1012.3 0.2
 
Date/Time
CST
Temp
°C
App
Temp
°C
Dew
Point
Rel
Hum
%
Delta-T
°C
Wind Press
QNH
hPa
Press
MSL
hPa
Rain
since 9 am
mm
Dir
 
Spd
km/h
Gust
km/h
Spd
kts
Gust
kts
06/11:30pm 14.4 13.3 13.0 91 0.8 NE 11 13 6 7 1012.7 1012.7 0.2
06/11:00pm 14.0 12.5 13.2 95 0.4 ENE 13 15 7 8 1012.9 1012.9 0.2
06/10:30pm 13.0 12.0 12.2 95 0.4 ENE 9 13 5 7 1013.4 1013.4 0.2
06/10:00pm 13.7 12.7 13.4 98 0.2 NE 11 11 6 6 1013.5 1013.5 0.2
06/09:30pm 12.8 11.4 12.3 97 0.3 E 11 15 6 8 1013.5 1013.5 0.2
06/09:00pm 12.1 11.0 10.8 92 0.7 E 7 13 4 7 1013.6 1013.6 0.2
06/08:30pm 12.9 12.3 11.6 92 0.7 ESE 6 6 3 3 1013.9 1013.9 0.2
06/08:00pm 12.9 12.1 11.1 89 0.9 ENE 6 7 3 4 1013.9 1013.9 0.2
06/07:30pm 13.4 11.7 11.3 87 1.1 ENE 11 13 6 7 1013.5 1013.5 0.2
06/07:00pm 14.6 13.4 11.6 82 1.6 ESE 9 9 5 5 1013.6 1013.6 0.2
06/06:30pm 15.1 13.6 11.9 81 1.7 SSE 11 13 6 7 1013.3 1013.3 0.2
06/06:00pm 15.8 14.7 12.0 78 2.1 SSE 9 9 5 5 1012.7 1012.7 0.2
06/05:30pm 17.3 16.2 11.8 70 3.0 SSE 9 11 5 6 1012.7 1012.7 0.2
06/05:00pm 18.4 17.4 12.2 67 3.4 SSW 9 15 5 8 1012.8 1012.8 0.2
06/04:30pm 18.7 17.9 12.9 69 3.3 SW 9 11 5 6 1012.9 1012.9 0.2
06/04:00pm 19.0 17.9 12.0 64 3.9 WSW 9 9 5 5 1013.0 1013.0 0.2
06/03:30pm 18.9 17.6 12.4 66 3.6 WSW 11 13 6 7 1013.1 1013.1 0.2
06/03:00pm 19.3 17.9 12.3 64 3.9 WSW 11 15 6 8 1013.3 1013.3 0.2
06/02:30pm 19.6 18.0 11.4 59 4.5 WSW 11 13 6 7 1013.4 1013.4 0.2
06/02:00pm 19.8 18.5 11.3 58 4.7 SW 9 13 5 7 1013.4 1013.4 0.2
06/01:30pm 19.2 17.4 11.0 59 4.5 WSW 11 15 6 8 1013.9 1013.9 0.2
06/01:00pm 19.3 17.1 10.8 58 4.6 WSW 13 15 7 8 1014.2 1014.2 0.2
06/12:30pm 19.4 17.7 11.2 59 4.5 WSW 11 13 6 7 1014.4 1014.4 0.2
06/12:00pm 19.4 17.8 11.7 61 4.3 SW 11 13 6 7 1014.6 1014.6 0.2
06/11:30am 19.0 17.9 12.0 64 3.9 WSW 9 13 5 7 1015.0 1015.0 0.0
06/11:00am 19.1 18.5 12.4 65 3.7 WSW 7 11 4 6 1015.3 1015.3 0.0
06/10:30am 19.1 19.7 13.1 68 3.4 ESE 2 7 1 4 1015.6 1015.6 0.0
06/10:00am 17.0 17.6 15.3 90 1.0 ENE 6 7 3 4 1015.6 1015.6 0.0
06/09:30am 15.5 16.2 15.5 100 0.0 E 6 7 3 4 1015.7 1015.7 0.0
06/09:00am 14.4 15.1 14.4 100 0.0 ENE 4 7 2 4 1015.6 1015.6 0.2
06/08:30am 11.9 10.8 11.9 100 0.0 NE 9 9 5 5 1015.5 1015.5 0.2
06/08:00am 11.5 9.9 11.5 100 0.0 NE 11 11 6 6 1015.2 1015.2 0.2
06/07:30am 11.3 9.6 11.3 100 0.0 NE 11 15 6 8 1014.7 1014.7 0.2
06/07:00am 11.6 10.4 11.6 100 0.0 NE 9 13 5 7 1014.4 1014.4 0.2
06/06:30am 11.1 9.8 11.1 100 0.0 NE 9 11 5 6 1014.4 1014.4 0.2
06/06:00am 11.6 11.3 11.6 100 0.0 ENE 4 6 2 3 1014.3 1014.3 0.2
06/05:30am 11.1 11.5 11.1 100 0.0 CALM 0 4 0 2 1014.1 1014.1 0.2
06/05:00am 11.5 10.8 11.5 100 0.0 ENE 6 11 3 6 1014.0 1014.0 0.2
06/04:30am 12.4 12.4 12.4 100 0.0 NE 4 7 2 4 1013.7 1013.7 0.2
06/04:00am 12.5 12.1 12.5 100 0.0 NE 6 11 3 6 1013.5 1013.5 0.2
06/03:30am 12.3 12.6 12.3 100 0.0 SSE 2 9 1 5 1013.5 1013.5 0.2
06/03:00am 13.3 14.0 13.3 100 0.0 SSW 2 6 1 3 1013.4 1013.4 0.2
06/02:30am 12.6 12.7 12.6 100 0.0 SSW 4 7 2 4 1013.5 1013.5 0.2
06/02:00am 13.4 14.5 13.4 100 0.0 CALM 0 0 0 0 1013.3 1013.3 0.2
06/01:30am 12.8 13.7 12.8 100 0.0 CALM 0 0 0 0 1013.1 1013.1 0.2
06/01:00am 12.8 13.7 12.8 100 0.0 CALM 0 0 0 0 1013.1 1013.1 0.2
06/12:30am 12.8 13.3 12.8 100 0.0 SSW 2 2 1 1 1012.8 1012.8 0.0
06/12:00am 13.5 14.6 13.5 100 0.0 CALM 0 0 0 0 1012.7 1012.7 0.0
 
Date/Time
CST
Temp
°C
App
Temp
°C
Dew
Point
Rel
Hum
%
Delta-T
°C
Wind Press
QNH
hPa
Press
MSL
hPa
Rain
since 9 am
mm
Dir
 
Spd
km/h
Gust
km/h
Spd
kts
Gust
kts
05/11:30pm 15.2 16.1 15.2 100 0.0 SW 4 6 2 3 1012.9 1012.9 0.0
05/11:00pm 15.5 16.2 15.5 100 0.0 W 6 7 3 4 1012.7 1012.7 0.0
05/10:30pm 16.2 16.6 16.2 100 0.0 WSW 9 13 5 7 1012.6 1012.6 0.0
05/10:00pm 14.8 14.7 13.8 94 0.6 NW 7 9 4 5 1012.4 1012.4 0.0
05/09:30pm 16.1 15.6 15.0 93 0.6 WNW 11 13 6 7 1012.3 1012.3 0.0
05/09:00pm 14.5 13.6 12.7 89 1.0 WNW 9 9 5 5 1012.1 1012.1 0.0
05/08:30pm 15.5 14.7 13.0 85 1.4 NW 9 9 5 5 1011.7 1011.7 0.0
05/08:00pm 16.7 15.9 13.0 79 2.1 NW 9 13 5 7 1011.5 1011.5 0.0
05/07:30pm 17.8 16.8 13.3 75 2.5 WNW 11 20 6 11 1011.6 1011.6 0.0
05/07:00pm 18.6 16.6 12.8 69 3.3 WNW 15 20 8 11 1011.1 1011.1 0.0
05/06:30pm 18.8 16.8 12.8 68 3.4 NW 15 20 8 11 1010.9 1010.9 0.0
05/06:00pm 17.9 16.7 12.8 72 2.9 NNW 11 15 6 8 1010.4 1010.4 0.0
05/05:30pm 19.2 17.3 12.9 67 3.6 NW 15 19 8 10 1010.1 1010.1 0.0
05/05:00pm 21.1 18.0 12.3 57 5.0 NNW 20 26 11 14 1010.0 1010.0 0.0
05/04:30pm 21.9 18.9 12.7 56 5.2 NNW 20 30 11 16 1010.1 1010.1 0.0
05/04:00pm 21.8 19.0 13.2 58 4.9 NNW 20 28 11 15 1010.1 1010.1 0.0
05/03:30pm 22.5 18.9 13.0 55 5.5 NNW 24 32 13 17 1010.0 1010.0 0.0
05/03:00pm 22.7 18.8 13.2 55 5.5 NNW 26 32 14 17 1010.0 1010.0 0.0
05/02:30pm 22.3 18.0 13.1 56 5.3 NNW 28 33 15 18 1010.1 1010.1 0.0
05/02:00pm 22.1 17.8 13.2 57 5.1 NNW 28 35 15 19 1010.4 1010.4 0.0
05/01:30pm 22.0 18.1 13.4 58 5.0 NNW 26 32 14 17 1010.8 1010.8 0.0
05/01:00pm 22.1 17.8 13.2 57 5.1 NNW 28 37 15 20 1011.0 1011.0 0.0
05/12:30pm 22.0 17.8 13.6 59 4.9 NNW 28 37 15 20 1011.4 1011.4 0.0
05/12:00pm 22.3 17.7 13.4 57 5.1 NNW 30 39 16 21 1011.8 1011.8 0.0
05/11:30am 21.3 16.1 12.7 58 4.9 NNW 32 41 17 22 1012.2 1012.2 0.0
05/11:00am 21.1 15.9 12.8 59 4.7 NNW 32 41 17 22 1012.6 1012.6 0.0
05/10:30am 20.6 15.1 12.3 59 4.7 NNW 33 43 18 23 1012.9 1012.9 0.0
05/10:00am 19.6 14.9 11.9 61 4.3 NNW 28 39 15 21 1013.1 1013.1 0.0
05/09:30am 18.8 16.2 12.1 65 3.7 N 17 24 9 13 1013.4 1013.4 0.0
05/09:00am 16.6 13.8 11.3 71 2.9 NNE 17 24 9 13 1013.3 1013.3 0.6
05/08:30am 14.8 12.0 11.2 79 1.9 NNE 17 32 9 17 1013.2 1013.2 0.6
05/08:00am 11.9 8.9 10.8 93 0.6 NE 17 20 9 11 1013.1 1013.1 0.6
05/07:30am 11.1 8.8 10.5 96 0.3 NE 13 17 7 9 1013.0 1013.0 0.6
05/07:00am 11.2 7.8 10.4 95 0.4 NE 19 22 10 12 1012.9 1012.9 0.6
05/06:30am 11.3 7.8 10.8 97 0.3 NE 20 26 11 14 1012.9 1012.9 0.6
05/06:00am 11.2 8.7 10.9 98 0.2 NE 15 20 8 11 1013.0 1013.0 0.6
05/05:30am 11.3 9.4 10.5 95 0.4 NE 11 17 6 9 1013.1 1013.1 0.6
05/05:00am 12.2 10.0 10.8 91 0.7 NNE 13 19 7 10 1013.0 1013.0 0.6
05/04:30am 13.4 12.0 10.8 84 1.4 N 9 15 5 8 1013.0 1013.0 0.6
05/04:00am 13.3 11.1 10.7 84 1.4 N 13 20 7 11 1012.9 1012.9 0.6
05/03:30am 14.3 11.6 11.8 85 1.3 N 17 20 9 11 1013.0 1013.0 0.6
05/03:00am 13.7 11.9 12.1 90 0.9 N 13 17 7 9 1013.2 1013.2 0.6
05/02:30am 13.5 11.2 12.9 96 0.3 N 17 20 9 11 1013.5 1013.5 0.6
05/02:00am 13.4 11.0 12.5 94 0.5 NNE 17 22 9 12 1013.7 1013.7 0.6
05/01:30am 14.9 13.6 14.9 100 0.0 N 15 24 8 13 1013.7 1013.7 0.6
05/01:00am 15.0 13.2 14.5 97 0.3 N 17 22 9 12 1014.0 1014.0 0.6
05/12:30am 15.2 14.1 15.2 100 0.0 NNW 15 20 8 11 1014.4 1014.4 0.6
05/12:00am 15.3 14.4 14.8 97 0.3 NNW 13 17 7 9 1014.5 1014.5 0.6
 
Date/Time
CST
Temp
°C
App
Temp
°C
Dew
Point
Rel
Hum
%
Delta-T
°C
Wind Press
QNH
hPa
Press
MSL
hPa
Rain
since 9 am
mm
Dir
 
Spd
km/h
Gust
km/h
Spd
kts
Gust
kts
04/11:30pm 15.7 13.2 14.2 91 0.9 NNW 20 26 11 14 1014.7 1014.7 0.6
04/11:00pm 15.7 13.2 15.1 96 0.3 NNW 22 30 12 16 1014.7 1014.7 0.6
04/10:30pm 15.9 13.6 15.7 99 0.1 NNW 22 32 12 17 1015.1 1015.1 0.6
04/10:00pm 15.9 14.0 15.7 99 0.1 NNW 20 30 11 16 1015.3 1015.3 0.6
04/09:30pm 15.8 14.1 15.8 100 0.0 NNW 19 28 10 15 1015.4 1015.4 0.6
04/09:00pm 15.9 15.0 15.9 100 0.0 NNW 15 22 8 12 1015.5 1015.5 0.6
04/08:30pm 15.9 14.0 15.7 99 0.1 NNW 20 28 11 15 1015.4 1015.4 0.6
04/08:00pm 15.9 13.6 15.7 99 0.1 NNW 22 30 12 16 1015.4 1015.4 0.6
04/07:30pm 15.5 13.5 15.5 100 0.0 NNW 20 28 11 15 1015.2 1015.2 0.6
04/07:00pm 15.6 13.6 15.6 100 0.0 NNW 20 26 11 14 1015.1 1015.1 0.6
04/06:30pm 16.2 14.3 15.7 97 0.3 NW 20 28 11 15 1015.1 1015.1 0.6
04/06:00pm 15.6 13.6 15.6 100 0.0 NNW 20 26 11 14 1014.8 1014.8 0.6
04/05:30pm 15.7 13.0 15.7 100 0.0 NNW 24 32 13 17 1014.8 1014.8 0.6
04/05:00pm 16.7 13.8 14.0 84 1.5 NNW 22 30 12 16 1014.8 1014.8 0.0
04/04:30pm 16.8 13.2 14.3 85 1.4 NNW 26 33 14 18 1014.6 1014.6 0.0
04/04:00pm 17.5 13.1 14.0 80 2.0 NNW 30 35 16 19 1014.7 1014.7 0.0
04/03:30pm 18.0 14.7 14.1 78 2.2 NNW 24 32 13 17 1014.6 1014.6 0.0
04/03:00pm 18.0 14.9 14.5 80 2.0 NNW 24 33 13 18 1014.7 1014.7 0.0
04/02:30pm 17.3 12.7 13.4 78 2.2 NNW 30 41 16 22 1014.9 1014.9 0.0
04/02:00pm 18.8 15.1 13.9 73 2.8 NNW 26 33 14 18 1015.0 1015.0 0.0
04/01:30pm 18.9 15.2 12.6 67 3.5 NW 24 32 13 17 1015.3 1015.3 0.0
04/01:00pm 19.2 15.6 12.9 67 3.6 NW 24 32 13 17 1015.6 1015.6 0.0
04/12:30pm 18.6 15.4 13.0 70 3.2 NW 22 30 12 16 1016.1 1016.1 0.0
04/12:00pm 18.4 15.3 13.3 72 2.9 NW 22 28 12 15 1016.3 1016.3 0.0
04/11:30am 17.5 14.1 12.6 73 2.7 NNW 22 28 12 15 1016.6 1016.6 0.0
04/11:00am 17.4 14.3 12.3 72 2.8 NNW 20 26 11 14 1016.8 1016.8 0.0
04/10:30am 17.6 14.8 12.7 73 2.7 NW 19 24 10 13 1016.9 1016.9 0.0
04/10:00am 17.1 14.6 12.4 74 2.6 NNW 17 20 9 11 1016.9 1016.9 0.0
04/09:30am 16.3 13.7 11.9 75 2.4 NW 17 24 9 13 1017.0 1017.0 0.0
04/09:00am 16.5 14.9 12.7 78 2.1 NW 13 17 7 9 1017.0 1017.0 0.8
04/08:30am 13.4 12.7 12.0 91 0.8 ENE 7 11 4 6 1016.8 1016.8 0.8

Other Formats:

Comma delimited format used in spreadsheet applications
http://www.bom.gov.au/fwo/IDS60801/IDS60801.94658.axf

JavaScript Object Notation format (JSON) in row-major order
http://www.bom.gov.au/fwo/IDS60801/IDS60801.94658.json